sensor_id;sensor_type;location;lat;lon;timestamp;P1;durP1;ratioP1;P2;durP2;ratioP2
73823;SDS011;62154;54.914;73.444;2022-08-20T06:24:07;34.70;;;20.13;;
73823;SDS011;62154;54.914;73.444;2022-08-20T06:26:34;42.35;;;21.40;;
73823;SDS011;62154;54.914;73.444;2022-08-20T06:29:02;33.75;;;20.38;;
73823;SDS011;62154;54.914;73.444;2022-08-20T06:31:36;28.80;;;19.27;;
73823;SDS011;62154;54.914;73.444;2022-08-20T06:34:15;36.45;;;19.00;;
73823;SDS011;62154;54.914;73.444;2022-08-20T06:36:44;32.97;;;19.27;;
73823;SDS011;62154;54.914;73.444;2022-08-20T06:39:22;37.38;;;20.90;;
73823;SDS011;62154;54.914;73.444;2022-08-20T06:42:00;33.63;;;20.20;;
73823;SDS011;62154;54.914;73.444;2022-08-20T06:44:33;36.88;;;20.75;;
73823;SDS011;62154;54.914;73.444;2022-08-20T06:47:12;48.67;;;24.25;;
73823;SDS011;62154;54.914;73.444;2022-08-20T06:49:43;30.92;;;19.55;;
73823;SDS011;62154;54.914;73.444;2022-08-20T06:52:20;28.65;;;18.75;;
73823;SDS011;62154;54.914;73.444;2022-08-20T06:54:47;36.97;;;20.20;;
73823;SDS011;62154;54.914;73.444;2022-08-20T06:57:14;37.05;;;22.10;;
73823;SDS011;62154;54.914;73.444;2022-08-20T06:59:42;42.67;;;24.15;;
73823;SDS011;62154;54.914;73.444;2022-08-20T07:02:10;37.45;;;22.00;;
73823;SDS011;62154;54.914;73.444;2022-08-20T07:04:42;32.97;;;20.02;;
73823;SDS011;62154;54.914;73.444;2022-08-20T07:07:17;40.83;;;22.00;;
73823;SDS011;62154;54.914;73.444;2022-08-20T07:09:50;31.25;;;18.83;;
73823;SDS011;62154;54.914;73.444;2022-08-20T07:12:29;37.85;;;19.73;;
73823;SDS011;62154;54.914;73.444;2022-08-20T07:15:08;29.85;;;17.45;;
73823;SDS011;62154;54.914;73.444;2022-08-20T07:17:37;27.75;;;15.73;;
73823;SDS011;62154;54.914;73.444;2022-08-20T07:20:16;25.58;;;15.27;;
73823;SDS011;62154;54.914;73.444;2022-08-20T07:22:53;30.25;;;17.02;;
73823;SDS011;62154;54.914;73.444;2022-08-20T07:25:21;32.63;;;18.25;;
73823;SDS011;62154;54.914;73.444;2022-08-20T07:27:49;27.27;;;15.63;;
73823;SDS011;62154;54.914;73.444;2022-08-20T07:30:19;22.73;;;15.85;;
73823;SDS011;62154;54.914;73.444;2022-08-20T07:35:40;26.77;;;16.42;;
73823;SDS011;62154;54.914;73.444;2022-08-20T07:38:16;22.95;;;14.38;;
73823;SDS011;62154;54.914;73.444;2022-08-20T07:40:50;27.90;;;15.07;;
73823;SDS011;62154;54.914;73.444;2022-08-20T07:43:19;25.25;;;14.85;;
73823;SDS011;62154;54.914;73.444;2022-08-20T07:45:53;20.45;;;12.38;;
73823;SDS011;62154;54.914;73.444;2022-08-20T07:48:23;20.10;;;12.93;;
73823;SDS011;62154;54.914;73.444;2022-08-20T07:50:55;21.00;;;12.52;;
73823;SDS011;62154;54.914;73.444;2022-08-20T07:53:23;21.27;;;13.13;;
73823;SDS011;62154;54.914;73.444;2022-08-20T07:55:56;17.05;;;10.85;;
73823;SDS011;62154;54.914;73.444;2022-08-20T07:58:23;18.80;;;11.52;;
73823;SDS011;62154;54.914;73.444;2022-08-20T08:00:50;22.00;;;12.23;;
73823;SDS011;62154;54.914;73.444;2022-08-20T08:03:18;16.48;;;10.73;;
73823;SDS011;62154;54.914;73.444;2022-08-20T08:05:45;15.20;;;10.55;;
73823;SDS011;62154;54.914;73.444;2022-08-20T08:08:18;17.55;;;10.15;;
73823;SDS011;62154;54.914;73.444;2022-08-20T08:10:49;22.85;;;12.20;;
73823;SDS011;62154;54.914;73.444;2022-08-20T08:13:27;20.13;;;12.02;;
73823;SDS011;62154;54.914;73.444;2022-08-20T08:15:59;18.33;;;11.98;;
73823;SDS011;62154;54.914;73.444;2022-08-20T08:18:29;17.25;;;10.40;;
73823;SDS011;62154;54.914;73.444;2022-08-20T08:21:03;19.02;;;11.35;;
73823;SDS011;62154;54.914;73.444;2022-08-20T08:23:32;17.92;;;10.30;;
73823;SDS011;62154;54.914;73.444;2022-08-20T08:26:00;14.38;;;10.48;;
73823;SDS011;62154;54.914;73.444;2022-08-20T08:28:27;21.55;;;12.20;;
73823;SDS011;62154;54.914;73.444;2022-08-20T08:30:55;14.75;;;9.32;;
73823;SDS011;62154;54.914;73.444;2022-08-20T08:33:24;14.45;;;8.63;;
73823;SDS011;62154;54.914;73.444;2022-08-20T08:35:58;18.13;;;10.35;;
73823;SDS011;62154;54.914;73.444;2022-08-20T08:38:29;12.10;;;8.45;;
73823;SDS011;62154;54.914;73.444;2022-08-20T08:41:06;16.83;;;9.77;;
73823;SDS011;62154;54.914;73.444;2022-08-20T08:43:39;14.18;;;8.68;;
73823;SDS011;62154;54.914;73.444;2022-08-20T08:46:09;12.77;;;9.07;;
73823;SDS011;62154;54.914;73.444;2022-08-20T08:48:41;12.70;;;8.32;;
73823;SDS011;62154;54.914;73.444;2022-08-20T08:51:28;12.57;;;9.10;;
73823;SDS011;62154;54.914;73.444;2022-08-20T08:54:00;15.73;;;8.45;;
73823;SDS011;62154;54.914;73.444;2022-08-20T08:56:28;14.15;;;8.77;;
73823;SDS011;62154;54.914;73.444;2022-08-20T08:58:59;14.07;;;8.80;;
73823;SDS011;62154;54.914;73.444;2022-08-20T09:01:31;13.82;;;8.60;;
73823;SDS011;62154;54.914;73.444;2022-08-20T09:04:00;16.00;;;9.95;;
73823;SDS011;62154;54.914;73.444;2022-08-20T09:06:30;13.27;;;8.02;;
73823;SDS011;62154;54.914;73.444;2022-08-20T09:08:59;15.07;;;8.68;;
73823;SDS011;62154;54.914;73.444;2022-08-20T09:11:29;14.95;;;8.70;;
73823;SDS011;62154;54.914;73.444;2022-08-20T09:13:56;19.23;;;10.48;;
73823;SDS011;62154;54.914;73.444;2022-08-20T09:16:24;19.50;;;9.05;;
73823;SDS011;62154;54.914;73.444;2022-08-20T09:18:54;20.10;;;9.65;;
73823;SDS011;62154;54.914;73.444;2022-08-20T09:21:21;16.77;;;8.18;;
73823;SDS011;62154;54.914;73.444;2022-08-20T09:23:48;20.98;;;9.38;;
73823;SDS011;62154;54.914;73.444;2022-08-20T09:26:15;18.77;;;8.95;;
73823;SDS011;62154;54.914;73.444;2022-08-20T09:28:42;19.38;;;11.10;;
73823;SDS011;62154;54.914;73.444;2022-08-20T09:31:09;15.70;;;9.07;;
73823;SDS011;62154;54.914;73.444;2022-08-20T09:33:36;23.50;;;9.52;;
73823;SDS011;62154;54.914;73.444;2022-08-20T09:36:03;21.30;;;9.10;;
73823;SDS011;62154;54.914;73.444;2022-08-20T09:38:30;19.55;;;9.52;;
73823;SDS011;62154;54.914;73.444;2022-08-20T09:40:57;23.75;;;10.27;;
73823;SDS011;62154;54.914;73.444;2022-08-20T09:43:24;29.30;;;9.50;;
73823;SDS011;62154;54.914;73.444;2022-08-20T09:45:51;20.67;;;8.93;;
73823;SDS011;62154;54.914;73.444;2022-08-20T09:48:18;21.08;;;9.07;;
73823;SDS011;62154;54.914;73.444;2022-08-20T09:50:47;15.23;;;8.35;;
73823;SDS011;62154;54.914;73.444;2022-08-20T09:53:14;17.08;;;7.80;;
73823;SDS011;62154;54.914;73.444;2022-08-20T09:55:43;11.27;;;7.78;;
73823;SDS011;62154;54.914;73.444;2022-08-20T09:58:41;18.17;;;8.68;;
73823;SDS011;62154;54.914;73.444;2022-08-20T10:01:17;21.23;;;7.70;;
73823;SDS011;62154;54.914;73.444;2022-08-20T10:03:53;17.38;;;8.40;;
73823;SDS011;62154;54.914;73.444;2022-08-20T10:06:30;29.15;;;15.48;;
73823;SDS011;62154;54.914;73.444;2022-08-20T10:08:57;13.88;;;8.40;;
73823;SDS011;62154;54.914;73.444;2022-08-20T10:11:24;13.65;;;8.57;;
73823;SDS011;62154;54.914;73.444;2022-08-20T10:13:51;22.73;;;8.05;;
73823;SDS011;62154;54.914;73.444;2022-08-20T10:16:18;17.00;;;7.90;;
73823;SDS011;62154;54.914;73.444;2022-08-20T10:18:45;18.50;;;7.35;;
73823;SDS011;62154;54.914;73.444;2022-08-20T10:21:14;12.65;;;6.88;;
73823;SDS011;62154;54.914;73.444;2022-08-20T10:23:42;15.15;;;7.47;;
73823;SDS011;62154;54.914;73.444;2022-08-20T10:26:10;10.07;;;7.22;;
73823;SDS011;62154;54.914;73.444;2022-08-20T10:28:37;14.88;;;7.03;;
73823;SDS011;62154;54.914;73.444;2022-08-20T10:31:05;8.95;;;7.60;;
73823;SDS011;62154;54.914;73.444;2022-08-20T10:33:33;9.02;;;6.65;;
73823;SDS011;62154;54.914;73.444;2022-08-20T10:38:36;8.45;;;5.80;;
73823;SDS011;62154;54.914;73.444;2022-08-20T10:41:03;13.07;;;5.70;;
73823;SDS011;62154;54.914;73.444;2022-08-20T10:43:30;8.88;;;5.60;;
73823;SDS011;62154;54.914;73.444;2022-08-20T10:45:58;10.43;;;5.93;;
73823;SDS011;62154;54.914;73.444;2022-08-20T10:48:28;8.93;;;5.90;;
73823;SDS011;62154;54.914;73.444;2022-08-20T10:50:56;8.68;;;6.95;;
73823;SDS011;62154;54.914;73.444;2022-08-20T10:53:28;7.93;;;6.53;;
73823;SDS011;62154;54.914;73.444;2022-08-20T10:55:55;8.55;;;5.97;;
73823;SDS011;62154;54.914;73.444;2022-08-20T10:58:23;7.47;;;5.75;;
73823;SDS011;62154;54.914;73.444;2022-08-20T11:00:54;9.77;;;7.57;;
73823;SDS011;62154;54.914;73.444;2022-08-20T11:03:21;15.70;;;7.80;;
73823;SDS011;62154;54.914;73.444;2022-08-20T11:05:48;13.50;;;6.40;;
73823;SDS011;62154;54.914;73.444;2022-08-20T11:08:26;11.82;;;6.47;;
73823;SDS011;62154;54.914;73.444;2022-08-20T11:10:53;8.02;;;6.88;;
73823;SDS011;62154;54.914;73.444;2022-08-20T11:13:30;9.75;;;6.07;;
73823;SDS011;62154;54.914;73.444;2022-08-20T11:15:59;7.72;;;6.22;;
73823;SDS011;62154;54.914;73.444;2022-08-20T11:18:28;11.77;;;7.20;;
73823;SDS011;62154;54.914;73.444;2022-08-20T11:20:56;10.98;;;8.65;;
73823;SDS011;62154;54.914;73.444;2022-08-20T11:23:23;20.55;;;10.50;;
73823;SDS011;62154;54.914;73.444;2022-08-20T11:25:50;16.77;;;10.80;;
73823;SDS011;62154;54.914;73.444;2022-08-20T11:28:19;8.32;;;5.93;;
73823;SDS011;62154;54.914;73.444;2022-08-20T11:30:47;10.63;;;7.70;;
73823;SDS011;62154;54.914;73.444;2022-08-20T11:33:16;11.35;;;7.13;;
73823;SDS011;62154;54.914;73.444;2022-08-20T11:35:44;14.23;;;10.52;;
73823;SDS011;62154;54.914;73.444;2022-08-20T11:38:11;9.63;;;7.10;;
73823;SDS011;62154;54.914;73.444;2022-08-20T11:40:38;20.50;;;10.18;;
73823;SDS011;62154;54.914;73.444;2022-08-20T11:43:05;18.02;;;11.10;;
73823;SDS011;62154;54.914;73.444;2022-08-20T11:45:32;11.05;;;7.05;;
73823;SDS011;62154;54.914;73.444;2022-08-20T11:47:59;6.68;;;5.20;;
73823;SDS011;62154;54.914;73.444;2022-08-20T11:50:27;6.80;;;5.95;;
73823;SDS011;62154;54.914;73.444;2022-08-20T11:52:54;9.75;;;6.88;;
73823;SDS011;62154;54.914;73.444;2022-08-20T11:55:21;16.77;;;12.00;;
73823;SDS011;62154;54.914;73.444;2022-08-20T11:57:48;14.75;;;10.65;;
73823;SDS011;62154;54.914;73.444;2022-08-20T12:00:19;11.18;;;7.53;;
73823;SDS011;62154;54.914;73.444;2022-08-20T12:02:49;7.45;;;6.07;;
73823;SDS011;62154;54.914;73.444;2022-08-20T12:05:17;11.32;;;8.05;;
73823;SDS011;62154;54.914;73.444;2022-08-20T12:07:44;9.13;;;6.78;;
73823;SDS011;62154;54.914;73.444;2022-08-20T12:10:12;11.73;;;6.53;;
73823;SDS011;62154;54.914;73.444;2022-08-20T12:12:42;15.75;;;8.88;;
73823;SDS011;62154;54.914;73.444;2022-08-20T12:15:09;10.38;;;7.78;;
73823;SDS011;62154;54.914;73.444;2022-08-20T12:17:37;9.52;;;6.47;;
73823;SDS011;62154;54.914;73.444;2022-08-20T12:20:08;16.70;;;6.00;;
73823;SDS011;62154;54.914;73.444;2022-08-20T12:22:37;10.05;;;5.70;;
73823;SDS011;62154;54.914;73.444;2022-08-20T12:25:05;11.30;;;6.57;;
73823;SDS011;62154;54.914;73.444;2022-08-20T12:27:34;11.93;;;7.78;;
73823;SDS011;62154;54.914;73.444;2022-08-20T12:30:07;12.70;;;9.35;;
73823;SDS011;62154;54.914;73.444;2022-08-20T12:32:39;17.15;;;10.30;;
73823;SDS011;62154;54.914;73.444;2022-08-20T12:35:07;21.35;;;13.02;;
73823;SDS011;62154;54.914;73.444;2022-08-20T12:37:36;15.80;;;8.15;;
73823;SDS011;62154;54.914;73.444;2022-08-20T12:40:04;14.43;;;7.38;;
73823;SDS011;62154;54.914;73.444;2022-08-20T12:42:34;12.02;;;8.18;;
73823;SDS011;62154;54.914;73.444;2022-08-20T12:45:02;8.90;;;6.78;;
73823;SDS011;62154;54.914;73.444;2022-08-20T12:47:34;9.38;;;6.32;;
73823;SDS011;62154;54.914;73.444;2022-08-20T12:50:39;18.98;;;10.18;;
73823;SDS011;62154;54.914;73.444;2022-08-20T12:53:01;11.88;;;8.75;;
73823;SDS011;62154;54.914;73.444;2022-08-20T12:55:29;15.60;;;9.10;;
73823;SDS011;62154;54.914;73.444;2022-08-20T12:57:57;15.32;;;8.45;;
73823;SDS011;62154;54.914;73.444;2022-08-20T13:00:42;19.08;;;11.45;;
73823;SDS011;62154;54.914;73.444;2022-08-20T13:03:11;10.80;;;6.53;;
73823;SDS011;62154;54.914;73.444;2022-08-20T13:05:38;16.48;;;11.95;;
73823;SDS011;62154;54.914;73.444;2022-08-20T13:08:07;17.42;;;10.20;;
73823;SDS011;62154;54.914;73.444;2022-08-20T13:10:36;9.90;;;6.57;;
73823;SDS011;62154;54.914;73.444;2022-08-20T13:13:18;11.77;;;7.63;;
73823;SDS011;62154;54.914;73.444;2022-08-20T13:15:45;17.98;;;9.45;;
73823;SDS011;62154;54.914;73.444;2022-08-20T13:18:13;17.25;;;8.27;;
73823;SDS011;62154;54.914;73.444;2022-08-20T13:20:40;20.45;;;14.10;;
73823;SDS011;62154;54.914;73.444;2022-08-20T13:23:07;19.15;;;13.82;;
73823;SDS011;62154;54.914;73.444;2022-08-20T13:25:35;14.00;;;11.35;;
73823;SDS011;62154;54.914;73.444;2022-08-20T13:28:02;19.73;;;13.20;;
73823;SDS011;62154;54.914;73.444;2022-08-20T13:30:31;20.70;;;14.52;;
73823;SDS011;62154;54.914;73.444;2022-08-20T13:33:00;17.42;;;10.38;;
73823;SDS011;62154;54.914;73.444;2022-08-20T13:35:27;20.40;;;16.83;;
73823;SDS011;62154;54.914;73.444;2022-08-20T13:37:57;11.68;;;7.07;;
73823;SDS011;62154;54.914;73.444;2022-08-20T13:40:24;15.70;;;8.05;;
73823;SDS011;62154;54.914;73.444;2022-08-20T13:42:51;20.40;;;11.27;;
73823;SDS011;62154;54.914;73.444;2022-08-20T13:45:18;18.42;;;13.07;;
73823;SDS011;62154;54.914;73.444;2022-08-20T13:47:45;26.23;;;17.77;;
73823;SDS011;62154;54.914;73.444;2022-08-20T13:50:19;18.08;;;12.63;;
73823;SDS011;62154;54.914;73.444;2022-08-20T13:52:49;13.98;;;9.38;;
73823;SDS011;62154;54.914;73.444;2022-08-20T13:55:16;17.73;;;12.27;;
73823;SDS011;62154;54.914;73.444;2022-08-20T13:57:45;18.63;;;10.77;;
73823;SDS011;62154;54.914;73.444;2022-08-20T14:00:17;32.20;;;19.02;;
73823;SDS011;62154;54.914;73.444;2022-08-20T14:02:52;25.77;;;14.25;;
73823;SDS011;62154;54.914;73.444;2022-08-20T14:05:19;19.60;;;11.77;;
73823;SDS011;62154;54.914;73.444;2022-08-20T14:07:47;25.77;;;14.52;;
73823;SDS011;62154;54.914;73.444;2022-08-20T14:10:19;25.05;;;17.27;;
73823;SDS011;62154;54.914;73.444;2022-08-20T14:12:55;23.20;;;15.88;;
73823;SDS011;62154;54.914;73.444;2022-08-20T14:15:22;34.67;;;16.02;;
73823;SDS011;62154;54.914;73.444;2022-08-20T14:17:52;29.85;;;17.00;;
73823;SDS011;62154;54.914;73.444;2022-08-20T14:20:22;23.73;;;15.30;;
73823;SDS011;62154;54.914;73.444;2022-08-20T14:22:51;24.75;;;13.85;;
73823;SDS011;62154;54.914;73.444;2022-08-20T14:25:19;24.35;;;14.93;;
73823;SDS011;62154;54.914;73.444;2022-08-20T14:27:48;34.63;;;20.60;;
73823;SDS011;62154;54.914;73.444;2022-08-20T14:30:17;27.17;;;18.67;;
73823;SDS011;62154;54.914;73.444;2022-08-20T14:32:48;34.90;;;21.75;;
73823;SDS011;62154;54.914;73.444;2022-08-20T14:35:15;42.40;;;25.77;;
73823;SDS011;62154;54.914;73.444;2022-08-20T14:37:44;51.53;;;27.75;;
73823;SDS011;62154;54.914;73.444;2022-08-20T14:40:15;36.78;;;23.00;;
73823;SDS011;62154;54.914;73.444;2022-08-20T14:42:43;53.70;;;32.97;;
73823;SDS011;62154;54.914;73.444;2022-08-20T14:45:11;54.67;;;28.83;;
73823;SDS011;62154;54.914;73.444;2022-08-20T14:47:40;59.92;;;34.72;;
73823;SDS011;62154;54.914;73.444;2022-08-20T14:50:17;70.65;;;41.13;;
73823;SDS011;62154;54.914;73.444;2022-08-20T14:52:46;62.72;;;35.38;;
73823;SDS011;62154;54.914;73.444;2022-08-20T14:55:15;76.50;;;41.05;;
73823;SDS011;62154;54.914;73.444;2022-08-20T14:57:46;86.75;;;42.03;;
73823;SDS011;62154;54.914;73.444;2022-08-20T15:00:15;77.32;;;41.67;;
73823;SDS011;62154;54.914;73.444;2022-08-20T15:02:49;74.55;;;43.20;;
73823;SDS011;62154;54.914;73.444;2022-08-20T15:05:17;73.90;;;42.33;;
73823;SDS011;62154;54.914;73.444;2022-08-20T15:07:45;70.47;;;40.58;;
73823;SDS011;62154;54.914;73.444;2022-08-20T15:10:20;60.45;;;36.10;;
73823;SDS011;62154;54.914;73.444;2022-08-20T15:12:49;50.47;;;31.13;;
73823;SDS011;62154;54.914;73.444;2022-08-20T15:15:17;44.15;;;26.58;;
73823;SDS011;62154;54.914;73.444;2022-08-20T15:17:46;50.63;;;28.88;;
73823;SDS011;62154;54.914;73.444;2022-08-20T15:20:16;53.80;;;33.30;;
73823;SDS011;62154;54.914;73.444;2022-08-20T15:22:44;52.38;;;30.85;;
73823;SDS011;62154;54.914;73.444;2022-08-20T15:25:12;41.35;;;25.25;;
73823;SDS011;62154;54.914;73.444;2022-08-20T15:27:41;43.78;;;25.63;;
73823;SDS011;62154;54.914;73.444;2022-08-20T15:30:13;41.90;;;24.25;;
73823;SDS011;62154;54.914;73.444;2022-08-20T15:32:42;46.83;;;26.77;;
73823;SDS011;62154;54.914;73.444;2022-08-20T15:35:09;48.08;;;26.55;;
73823;SDS011;62154;54.914;73.444;2022-08-20T15:37:39;42.25;;;24.88;;
73823;SDS011;62154;54.914;73.444;2022-08-20T15:40:08;47.33;;;23.92;;
73823;SDS011;62154;54.914;73.444;2022-08-20T15:42:38;51.03;;;25.63;;
73823;SDS011;62154;54.914;73.444;2022-08-20T15:45:10;41.20;;;23.08;;
73823;SDS011;62154;54.914;73.444;2022-08-20T15:53:17;51.72;;;29.58;;
73823;SDS011;62154;54.914;73.444;2022-08-20T15:55:55;54.45;;;30.70;;
73823;SDS011;62154;54.914;73.444;2022-08-20T16:07:05;58.60;;;24.20;;
73823;SDS011;62154;54.914;73.444;2022-08-20T16:09:45;53.90;;;25.35;;
73823;SDS011;62154;54.914;73.444;2022-08-20T16:12:16;64.22;;;30.23;;
73823;SDS011;62154;54.914;73.444;2022-08-20T16:15:02;66.68;;;32.70;;
73823;SDS011;62154;54.914;73.444;2022-08-20T16:17:51;50.40;;;24.08;;
73823;SDS011;62154;54.914;73.444;2022-08-20T16:20:41;52.33;;;24.10;;
73823;SDS011;62154;54.914;73.444;2022-08-20T16:23:16;48.60;;;24.88;;
73823;SDS011;62154;54.914;73.444;2022-08-20T16:28:37;56.80;;;24.52;;
73823;SDS011;62154;54.914;73.444;2022-08-20T16:31:45;54.83;;;25.15;;
73823;SDS011;62154;54.914;73.444;2022-08-20T16:34:35;50.25;;;24.50;;
73823;SDS011;62154;54.914;73.444;2022-08-20T16:37:23;57.05;;;25.60;;
73823;SDS011;62154;54.914;73.444;2022-08-20T16:43:22;48.45;;;22.88;;
73823;SDS011;62154;54.914;73.444;2022-08-20T16:46:19;42.42;;;22.85;;
73823;SDS011;62154;54.914;73.444;2022-08-20T16:48:54;46.53;;;22.92;;
73823;SDS011;62154;54.914;73.444;2022-08-20T16:51:37;40.42;;;21.63;;
73823;SDS011;62154;54.914;73.444;2022-08-20T16:54:04;40.35;;;20.98;;
73823;SDS011;62154;54.914;73.444;2022-08-20T16:56:37;58.70;;;24.33;;
73823;SDS011;62154;54.914;73.444;2022-08-20T16:59:08;53.50;;;23.75;;
73823;SDS011;62154;54.914;73.444;2022-08-20T17:02:08;43.33;;;21.15;;
73823;SDS011;62154;54.914;73.444;2022-08-20T17:04:46;44.70;;;21.92;;
73823;SDS011;62154;54.914;73.444;2022-08-20T17:08:07;45.28;;;22.77;;
73823;SDS011;62154;54.914;73.444;2022-08-20T17:10:25;39.00;;;20.23;;
73823;SDS011;62154;54.914;73.444;2022-08-20T17:15:54;45.50;;;20.55;;
73823;SDS011;62154;54.914;73.444;2022-08-20T17:18:30;38.75;;;20.02;;
73823;SDS011;62154;54.914;73.444;2022-08-20T17:21:00;42.53;;;19.05;;
73823;SDS011;62154;54.914;73.444;2022-08-20T17:23:41;38.03;;;19.05;;
73823;SDS011;62154;54.914;73.444;2022-08-20T17:26:19;40.22;;;17.75;;
73823;SDS011;62154;54.914;73.444;2022-08-20T17:28:50;34.83;;;17.73;;
73823;SDS011;62154;54.914;73.444;2022-08-20T17:31:35;32.22;;;16.48;;
73823;SDS011;62154;54.914;73.444;2022-08-20T17:34:12;31.75;;;16.13;;
73823;SDS011;62154;54.914;73.444;2022-08-20T17:36:57;49.53;;;25.88;;
73823;SDS011;62154;54.914;73.444;2022-08-20T17:39:49;69.57;;;31.40;;
73823;SDS011;62154;54.914;73.444;2022-08-20T17:42:25;77.55;;;32.90;;
73823;SDS011;62154;54.914;73.444;2022-08-20T17:45:14;70.78;;;33.08;;
73823;SDS011;62154;54.914;73.444;2022-08-20T17:47:44;71.22;;;29.92;;
73823;SDS011;62154;54.914;73.444;2022-08-20T17:50:12;56.17;;;27.25;;
73823;SDS011;62154;54.914;73.444;2022-08-20T17:52:44;55.55;;;24.83;;
73823;SDS011;62154;54.914;73.444;2022-08-20T17:55:15;49.17;;;24.20;;
73823;SDS011;62154;54.914;73.444;2022-08-20T17:57:44;48.70;;;24.55;;
73823;SDS011;62154;54.914;73.444;2022-08-20T18:00:18;39.53;;;22.08;;
73823;SDS011;62154;54.914;73.444;2022-08-20T18:02:56;32.53;;;19.98;;
73823;SDS011;62154;54.914;73.444;2022-08-20T18:05:36;36.28;;;20.52;;
73823;SDS011;62154;54.914;73.444;2022-08-20T18:08:15;39.45;;;20.55;;
73823;SDS011;62154;54.914;73.444;2022-08-20T18:11:01;36.55;;;19.60;;
73823;SDS011;62154;54.914;73.444;2022-08-20T18:16:19;33.85;;;18.80;;
73823;SDS011;62154;54.914;73.444;2022-08-20T18:19:02;36.08;;;19.63;;
73823;SDS011;62154;54.914;73.444;2022-08-20T18:24:44;35.38;;;20.60;;
73823;SDS011;62154;54.914;73.444;2022-08-20T18:27:32;42.28;;;23.02;;
73823;SDS011;62154;54.914;73.444;2022-08-20T18:30:17;42.55;;;23.52;;
73823;SDS011;62154;54.914;73.444;2022-08-20T18:32:47;40.25;;;22.70;;
73823;SDS011;62154;54.914;73.444;2022-08-20T18:35:36;37.47;;;22.63;;
73823;SDS011;62154;54.914;73.444;2022-08-20T18:40:49;42.58;;;21.52;;
73823;SDS011;62154;54.914;73.444;2022-08-20T18:43:24;36.60;;;20.45;;
73823;SDS011;62154;54.914;73.444;2022-08-20T18:45:53;39.85;;;20.80;;
73823;SDS011;62154;54.914;73.444;2022-08-20T18:48:21;39.65;;;21.23;;
73823;SDS011;62154;54.914;73.444;2022-08-20T18:51:02;38.80;;;21.02;;
73823;SDS011;62154;54.914;73.444;2022-08-20T18:53:34;33.72;;;19.33;;
73823;SDS011;62154;54.914;73.444;2022-08-20T18:56:10;37.13;;;18.98;;
73823;SDS011;62154;54.914;73.444;2022-08-20T19:01:28;34.88;;;18.27;;
73823;SDS011;62154;54.914;73.444;2022-08-20T19:03:59;35.60;;;17.98;;
73823;SDS011;62154;54.914;73.444;2022-08-20T19:09:10;26.20;;;15.98;;
73823;SDS011;62154;54.914;73.444;2022-08-20T19:20:19;34.65;;;19.23;;
73823;SDS011;62154;54.914;73.444;2022-08-20T19:22:48;29.40;;;17.90;;
73823;SDS011;62154;54.914;73.444;2022-08-20T19:25:27;39.22;;;17.98;;
73823;SDS011;62154;54.914;73.444;2022-08-20T19:28:02;26.70;;;16.63;;
73823;SDS011;62154;54.914;73.444;2022-08-20T19:30:42;26.90;;;15.25;;
73823;SDS011;62154;54.914;73.444;2022-08-20T19:33:11;33.88;;;16.23;;
73823;SDS011;62154;54.914;73.444;2022-08-20T19:35:39;30.70;;;16.55;;
73823;SDS011;62154;54.914;73.444;2022-08-20T19:38:13;25.42;;;15.93;;
73823;SDS011;62154;54.914;73.444;2022-08-20T19:40:42;26.95;;;16.83;;
73823;SDS011;62154;54.914;73.444;2022-08-20T19:43:11;29.05;;;16.40;;
73823;SDS011;62154;54.914;73.444;2022-08-20T19:45:45;31.17;;;17.58;;
73823;SDS011;62154;54.914;73.444;2022-08-20T19:51:23;30.27;;;16.52;;
73823;SDS011;62154;54.914;73.444;2022-08-20T19:54:03;25.83;;;15.40;;
73823;SDS011;62154;54.914;73.444;2022-08-20T19:56:36;25.00;;;14.95;;
73823;SDS011;62154;54.914;73.444;2022-08-20T19:59:07;30.08;;;14.57;;
73823;SDS011;62154;54.914;73.444;2022-08-20T20:01:53;28.05;;;13.63;;
73823;SDS011;62154;54.914;73.444;2022-08-20T20:04:26;24.73;;;14.63;;
73823;SDS011;62154;54.914;73.444;2022-08-20T20:07:01;25.38;;;14.15;;
73823;SDS011;62154;54.914;73.444;2022-08-20T20:09:34;27.42;;;13.90;;
73823;SDS011;62154;54.914;73.444;2022-08-20T20:12:10;22.52;;;13.52;;
73823;SDS011;62154;54.914;73.444;2022-08-20T20:14:39;25.27;;;13.18;;
73823;SDS011;62154;54.914;73.444;2022-08-20T20:17:06;25.45;;;12.68;;
73823;SDS011;62154;54.914;73.444;2022-08-20T20:19:50;27.23;;;14.10;;
73823;SDS011;62154;54.914;73.444;2022-08-20T20:22:30;26.65;;;13.75;;
73823;SDS011;62154;54.914;73.444;2022-08-20T20:28:18;27.85;;;13.30;;
73823;SDS011;62154;54.914;73.444;2022-08-20T20:30:47;28.55;;;14.05;;
73823;SDS011;62154;54.914;73.444;2022-08-20T20:33:25;26.45;;;12.77;;
73823;SDS011;62154;54.914;73.444;2022-08-20T20:36:08;29.05;;;14.02;;
73823;SDS011;62154;54.914;73.444;2022-08-20T20:41:28;26.27;;;14.32;;
73823;SDS011;62154;54.914;73.444;2022-08-20T20:44:38;24.77;;;12.80;;
73823;SDS011;62154;54.914;73.444;2022-08-20T20:46:55;23.13;;;13.35;;
73823;SDS011;62154;54.914;73.444;2022-08-20T20:49:28;24.30;;;13.00;;
73823;SDS011;62154;54.914;73.444;2022-08-20T20:52:27;33.92;;;14.25;;
73823;SDS011;62154;54.914;73.444;2022-08-20T20:55:30;29.50;;;13.85;;
73823;SDS011;62154;54.914;73.444;2022-08-20T20:57:54;28.75;;;13.40;;
73823;SDS011;62154;54.914;73.444;2022-08-20T21:00:24;26.15;;;13.70;;
73823;SDS011;62154;54.914;73.444;2022-08-20T21:02:54;27.23;;;13.73;;
73823;SDS011;62154;54.914;73.444;2022-08-20T21:05:22;27.60;;;13.30;;
73823;SDS011;62154;54.914;73.444;2022-08-20T21:07:52;25.30;;;12.50;;
73823;SDS011;62154;54.914;73.444;2022-08-20T21:10:26;30.48;;;13.65;;
73823;SDS011;62154;54.914;73.444;2022-08-20T21:12:56;28.13;;;13.15;;
73823;SDS011;62154;54.914;73.444;2022-08-20T21:15:24;32.70;;;13.38;;
73823;SDS011;62154;54.914;73.444;2022-08-20T21:17:52;27.33;;;13.25;;
73823;SDS011;62154;54.914;73.444;2022-08-20T21:20:19;25.17;;;13.20;;
73823;SDS011;62154;54.914;73.444;2022-08-20T21:22:48;36.40;;;13.38;;
73823;SDS011;62154;54.914;73.444;2022-08-20T21:25:15;25.42;;;14.07;;
73823;SDS011;62154;54.914;73.444;2022-08-20T21:27:45;24.65;;;14.07;;
73823;SDS011;62154;54.914;73.444;2022-08-20T21:30:15;22.00;;;13.38;;
73823;SDS011;62154;54.914;73.444;2022-08-20T21:32:42;33.15;;;15.38;;
73823;SDS011;62154;54.914;73.444;2022-08-20T21:35:10;22.73;;;12.02;;
73823;SDS011;62154;54.914;73.444;2022-08-20T21:37:37;24.35;;;12.55;;
73823;SDS011;62154;54.914;73.444;2022-08-20T21:40:05;30.13;;;12.18;;
73823;SDS011;62154;54.914;73.444;2022-08-20T21:42:34;22.40;;;11.75;;
73823;SDS011;62154;54.914;73.444;2022-08-20T21:45:04;20.58;;;12.02;;
73823;SDS011;62154;54.914;73.444;2022-08-20T21:47:33;18.15;;;10.70;;
73823;SDS011;62154;54.914;73.444;2022-08-20T21:50:01;16.58;;;10.20;;
73823;SDS011;62154;54.914;73.444;2022-08-20T21:52:29;19.33;;;10.20;;
73823;SDS011;62154;54.914;73.444;2022-08-20T21:54:59;17.77;;;10.25;;
73823;SDS011;62154;54.914;73.444;2022-08-20T21:57:27;20.40;;;10.38;;
73823;SDS011;62154;54.914;73.444;2022-08-20T21:59:56;14.57;;;9.55;;
73823;SDS011;62154;54.914;73.444;2022-08-20T22:02:26;19.77;;;9.95;;
73823;SDS011;62154;54.914;73.444;2022-08-20T22:04:53;17.00;;;10.02;;